sensor_id;sensor_type;location;lat;lon;timestamp;temperature;humidity
7016;DHT22;3548;48.402;9.990;2023-03-14T00:00:36;9.20;99.90
7016;DHT22;3548;48.402;9.990;2023-03-14T00:03:01;9.20;99.90
7016;DHT22;3548;48.402;9.990;2023-03-14T00:05:27;9.20;99.90
7016;DHT22;3548;48.402;9.990;2023-03-14T00:07:52;9.20;99.90
7016;DHT22;3548;48.402;9.990;2023-03-14T00:10:18;9.10;99.90
7016;DHT22;3548;48.402;9.990;2023-03-14T00:12:44;9.10;99.90
7016;DHT22;3548;48.402;9.990;2023-03-14T00:15:10;9.10;99.90
7016;DHT22;3548;48.402;9.990;2023-03-14T00:17:37;9.10;99.90
7016;DHT22;3548;48.402;9.990;2023-03-14T00:20:06;9.10;99.90
7016;DHT22;3548;48.402;9.990;2023-03-14T00:22:37;9.10;99.90
7016;DHT22;3548;48.402;9.990;2023-03-14T00:25:05;9.00;99.90
7016;DHT22;3548;48.402;9.990;2023-03-14T00:27:31;9.00;99.90
7016;DHT22;3548;48.402;9.990;2023-03-14T00:29:57;9.10;99.90
7016;DHT22;3548;48.402;9.990;2023-03-14T00:32:22;9.00;99.90
7016;DHT22;3548;48.402;9.990;2023-03-14T00:34:48;9.00;99.90
7016;DHT22;3548;48.402;9.990;2023-03-14T00:37:14;9.00;99.90
7016;DHT22;3548;48.402;9.990;2023-03-14T00:39:39;8.90;99.90
7016;DHT22;3548;48.402;9.990;2023-03-14T00:42:05;8.90;99.90
7016;DHT22;3548;48.402;9.990;2023-03-14T00:44:30;8.90;99.90
7016;DHT22;3548;48.402;9.990;2023-03-14T00:46:57;8.90;99.90
7016;DHT22;3548;48.402;9.990;2023-03-14T00:49:23;8.90;99.90
7016;DHT22;3548;48.402;9.990;2023-03-14T00:51:48;8.80;99.90
7016;DHT22;3548;48.402;9.990;2023-03-14T00:54:14;8.80;99.90
7016;DHT22;3548;48.402;9.990;2023-03-14T00:56:39;8.80;99.90
7016;DHT22;3548;48.402;9.990;2023-03-14T00:59:05;8.80;99.90
7016;DHT22;3548;48.402;9.990;2023-03-14T01:01:30;8.80;99.90
7016;DHT22;3548;48.402;9.990;2023-03-14T01:03:56;8.80;99.90
7016;DHT22;3548;48.402;9.990;2023-03-14T01:06:25;8.70;99.90
7016;DHT22;3548;48.402;9.990;2023-03-14T01:08:51;8.70;99.90
7016;DHT22;3548;48.402;9.990;2023-03-14T01:11:31;8.70;99.90
7016;DHT22;3548;48.402;9.990;2023-03-14T01:13:58;8.60;99.90
7016;DHT22;3548;48.402;9.990;2023-03-14T01:16:25;8.60;99.90
7016;DHT22;3548;48.402;9.990;2023-03-14T01:18:52;8.50;99.90
7016;DHT22;3548;48.402;9.990;2023-03-14T01:21:26;8.50;99.90
7016;DHT22;3548;48.402;9.990;2023-03-14T01:23:54;8.50;99.90
7016;DHT22;3548;48.402;9.990;2023-03-14T01:26:22;8.50;99.90
7016;DHT22;3548;48.402;9.990;2023-03-14T01:28:48;8.50;99.90
7016;DHT22;3548;48.402;9.990;2023-03-14T01:31:14;8.50;99.90
7016;DHT22;3548;48.402;9.990;2023-03-14T01:33:41;8.50;99.90
7016;DHT22;3548;48.402;9.990;2023-03-14T01:36:08;8.50;99.90
7016;DHT22;3548;48.402;9.990;2023-03-14T01:38:36;8.50;99.90
7016;DHT22;3548;48.402;9.990;2023-03-14T01:41:02;8.40;99.90
7016;DHT22;3548;48.402;9.990;2023-03-14T01:43:28;8.40;99.90
7016;DHT22;3548;48.402;9.990;2023-03-14T01:51:32;8.50;99.90
7016;DHT22;3548;48.402;9.990;2023-03-14T01:54:40;8.50;99.90
7016;DHT22;3548;48.402;9.990;2023-03-14T01:57:23;8.50;99.90
7016;DHT22;3548;48.402;9.990;2023-03-14T01:59:56;8.50;99.90
7016;DHT22;3548;48.402;9.990;2023-03-14T02:02:24;8.50;99.90
7016;DHT22;3548;48.402;9.990;2023-03-14T02:04:52;8.50;99.90
7016;DHT22;3548;48.402;9.990;2023-03-14T02:07:34;8.40;99.90
7016;DHT22;3548;48.402;9.990;2023-03-14T02:10:02;8.40;99.90
7016;DHT22;3548;48.402;9.990;2023-03-14T02:12:29;8.40;99.90
7016;DHT22;3548;48.402;9.990;2023-03-14T02:14:54;8.40;99.90
7016;DHT22;3548;48.402;9.990;2023-03-14T02:17:20;8.40;99.90
7016;DHT22;3548;48.402;9.990;2023-03-14T02:19:59;8.40;99.90
7016;DHT22;3548;48.402;9.990;2023-03-14T02:22:31;8.40;99.90
7016;DHT22;3548;48.402;9.990;2023-03-14T02:25:05;8.40;99.90
7016;DHT22;3548;48.402;9.990;2023-03-14T02:27:33;8.50;99.90
7016;DHT22;3548;48.402;9.990;2023-03-14T02:32:33;8.50;99.90
7016;DHT22;3548;48.402;9.990;2023-03-14T02:35:03;8.40;99.90
7016;DHT22;3548;48.402;9.990;2023-03-14T02:37:41;8.50;99.90
7016;DHT22;3548;48.402;9.990;2023-03-14T02:40:09;8.50;99.90
7016;DHT22;3548;48.402;9.990;2023-03-14T02:42:35;8.50;99.90
7016;DHT22;3548;48.402;9.990;2023-03-14T02:47:51;8.40;99.90
7016;DHT22;3548;48.402;9.990;2023-03-14T02:50:23;8.40;99.90
7016;DHT22;3548;48.402;9.990;2023-03-14T02:52:50;8.40;99.90
7016;DHT22;3548;48.402;9.990;2023-03-14T02:55:20;8.40;99.90
7016;DHT22;3548;48.402;9.990;2023-03-14T02:57:46;8.40;99.90
7016;DHT22;3548;48.402;9.990;2023-03-14T03:00:12;8.40;99.90
7016;DHT22;3548;48.402;9.990;2023-03-14T03:02:37;8.40;99.90
7016;DHT22;3548;48.402;9.990;2023-03-14T03:05:03;8.40;99.90
7016;DHT22;3548;48.402;9.990;2023-03-14T03:07:29;8.40;99.90
7016;DHT22;3548;48.402;9.990;2023-03-14T03:09:54;8.40;99.90
7016;DHT22;3548;48.402;9.990;2023-03-14T03:12:20;8.40;99.90
7016;DHT22;3548;48.402;9.990;2023-03-14T03:14:45;8.40;99.90
7016;DHT22;3548;48.402;9.990;2023-03-14T03:17:11;8.30;99.90
7016;DHT22;3548;48.402;9.990;2023-03-14T03:19:36;8.30;99.90
7016;DHT22;3548;48.402;9.990;2023-03-14T03:22:02;8.30;99.90
7016;DHT22;3548;48.402;9.990;2023-03-14T03:24:27;8.30;99.90
7016;DHT22;3548;48.402;9.990;2023-03-14T03:26:53;8.30;99.90
7016;DHT22;3548;48.402;9.990;2023-03-14T03:29:18;8.30;99.90
7016;DHT22;3548;48.402;9.990;2023-03-14T03:31:44;8.20;99.90
7016;DHT22;3548;48.402;9.990;2023-03-14T03:34:11;8.20;99.90
7016;DHT22;3548;48.402;9.990;2023-03-14T03:36:37;8.20;99.90
7016;DHT22;3548;48.402;9.990;2023-03-14T03:39:03;8.20;99.90
7016;DHT22;3548;48.402;9.990;2023-03-14T03:41:29;8.20;99.90
7016;DHT22;3548;48.402;9.990;2023-03-14T03:43:55;8.20;99.90
7016;DHT22;3548;48.402;9.990;2023-03-14T03:46:21;8.20;99.90
7016;DHT22;3548;48.402;9.990;2023-03-14T03:48:46;8.20;99.90
7016;DHT22;3548;48.402;9.990;2023-03-14T03:51:13;8.20;99.90
7016;DHT22;3548;48.402;9.990;2023-03-14T03:53:39;8.20;99.90
7016;DHT22;3548;48.402;9.990;2023-03-14T03:56:05;8.20;99.90
7016;DHT22;3548;48.402;9.990;2023-03-14T03:58:31;8.20;99.90
7016;DHT22;3548;48.402;9.990;2023-03-14T04:00:56;8.20;99.90
7016;DHT22;3548;48.402;9.990;2023-03-14T04:03:22;8.20;99.90
7016;DHT22;3548;48.402;9.990;2023-03-14T04:06:01;8.20;99.90
7016;DHT22;3548;48.402;9.990;2023-03-14T04:08:27;8.20;99.90
7016;DHT22;3548;48.402;9.990;2023-03-14T04:11:00;8.30;99.90
7016;DHT22;3548;48.402;9.990;2023-03-14T04:13:27;8.30;99.90
7016;DHT22;3548;48.402;9.990;2023-03-14T04:15:53;8.20;99.90
7016;DHT22;3548;48.402;9.990;2023-03-14T04:18:19;8.20;99.90
7016;DHT22;3548;48.402;9.990;2023-03-14T04:20:44;8.30;99.90
7016;DHT22;3548;48.402;9.990;2023-03-14T04:23:10;8.30;99.90
7016;DHT22;3548;48.402;9.990;2023-03-14T04:25:36;8.30;99.90
7016;DHT22;3548;48.402;9.990;2023-03-14T04:28:01;8.30;99.90
7016;DHT22;3548;48.402;9.990;2023-03-14T04:30:28;8.30;99.90
7016;DHT22;3548;48.402;9.990;2023-03-14T04:32:54;8.30;99.90
7016;DHT22;3548;48.402;9.990;2023-03-14T04:35:19;8.30;99.90
7016;DHT22;3548;48.402;9.990;2023-03-14T04:37:45;8.30;99.90
7016;DHT22;3548;48.402;9.990;2023-03-14T04:40:15;8.20;99.90
7016;DHT22;3548;48.402;9.990;2023-03-14T04:42:41;8.20;99.90
7016;DHT22;3548;48.402;9.990;2023-03-14T04:45:07;8.20;99.90
7016;DHT22;3548;48.402;9.990;2023-03-14T04:47:33;8.20;99.90
7016;DHT22;3548;48.402;9.990;2023-03-14T04:49:58;8.20;99.90
7016;DHT22;3548;48.402;9.990;2023-03-14T04:52:24;8.20;99.90
7016;DHT22;3548;48.402;9.990;2023-03-14T04:54:49;8.10;99.90
7016;DHT22;3548;48.402;9.990;2023-03-14T04:57:15;8.10;99.90
7016;DHT22;3548;48.402;9.990;2023-03-14T04:59:42;8.10;99.90
7016;DHT22;3548;48.402;9.990;2023-03-14T05:02:07;8.10;99.90
7016;DHT22;3548;48.402;9.990;2023-03-14T05:04:33;8.00;99.90
7016;DHT22;3548;48.402;9.990;2023-03-14T05:06:59;8.00;99.90
7016;DHT22;3548;48.402;9.990;2023-03-14T05:09:25;8.00;99.90
7016;DHT22;3548;48.402;9.990;2023-03-14T05:11:50;8.00;99.90
7016;DHT22;3548;48.402;9.990;2023-03-14T05:14:16;7.90;99.90
7016;DHT22;3548;48.402;9.990;2023-03-14T05:16:41;7.90;99.90
7016;DHT22;3548;48.402;9.990;2023-03-14T05:19:07;7.90;99.90
7016;DHT22;3548;48.402;9.990;2023-03-14T05:21:33;7.90;99.90
7016;DHT22;3548;48.402;9.990;2023-03-14T05:23:58;7.90;99.90
7016;DHT22;3548;48.402;9.990;2023-03-14T05:26:24;7.90;99.90
7016;DHT22;3548;48.402;9.990;2023-03-14T05:28:49;7.90;99.90
7016;DHT22;3548;48.402;9.990;2023-03-14T05:31:15;7.80;99.90
7016;DHT22;3548;48.402;9.990;2023-03-14T05:33:40;7.80;99.90
7016;DHT22;3548;48.402;9.990;2023-03-14T05:36:06;7.80;99.90
7016;DHT22;3548;48.402;9.990;2023-03-14T05:38:32;7.80;99.90
7016;DHT22;3548;48.402;9.990;2023-03-14T05:40:57;7.80;99.90
7016;DHT22;3548;48.402;9.990;2023-03-14T05:43:23;7.80;99.90
7016;DHT22;3548;48.402;9.990;2023-03-14T05:45:48;7.80;99.90
7016;DHT22;3548;48.402;9.990;2023-03-14T05:48:15;7.80;99.90
7016;DHT22;3548;48.402;9.990;2023-03-14T05:50:40;7.80;99.90
7016;DHT22;3548;48.402;9.990;2023-03-14T05:53:06;7.80;99.90
7016;DHT22;3548;48.402;9.990;2023-03-14T05:55:31;7.80;99.90
7016;DHT22;3548;48.402;9.990;2023-03-14T05:57:57;7.80;99.90
7016;DHT22;3548;48.402;9.990;2023-03-14T06:00:22;7.80;99.90
7016;DHT22;3548;48.402;9.990;2023-03-14T06:02:48;7.80;99.90
7016;DHT22;3548;48.402;9.990;2023-03-14T06:05:14;7.80;99.90
7016;DHT22;3548;48.402;9.990;2023-03-14T06:07:39;7.80;99.90
7016;DHT22;3548;48.402;9.990;2023-03-14T06:10:06;7.80;99.90
7016;DHT22;3548;48.402;9.990;2023-03-14T06:12:31;7.80;99.90
7016;DHT22;3548;48.402;9.990;2023-03-14T06:14:57;7.80;99.90
7016;DHT22;3548;48.402;9.990;2023-03-14T06:17:22;7.80;99.90
7016;DHT22;3548;48.402;9.990;2023-03-14T06:19:48;7.90;99.90
7016;DHT22;3548;48.402;9.990;2023-03-14T06:22:14;7.80;99.90
7016;DHT22;3548;48.402;9.990;2023-03-14T06:24:39;7.90;99.90
7016;DHT22;3548;48.402;9.990;2023-03-14T06:27:05;7.90;99.90
7016;DHT22;3548;48.402;9.990;2023-03-14T06:29:30;7.90;99.90
7016;DHT22;3548;48.402;9.990;2023-03-14T06:31:56;7.90;99.90
7016;DHT22;3548;48.402;9.990;2023-03-14T06:34:22;7.90;99.90
7016;DHT22;3548;48.402;9.990;2023-03-14T06:36:48;7.90;99.90
7016;DHT22;3548;48.402;9.990;2023-03-14T06:39:14;8.00;99.90
7016;DHT22;3548;48.402;9.990;2023-03-14T06:41:40;8.00;99.90
7016;DHT22;3548;48.402;9.990;2023-03-14T06:44:05;8.00;99.90
7016;DHT22;3548;48.402;9.990;2023-03-14T06:46:31;8.10;99.90
7016;DHT22;3548;48.402;9.990;2023-03-14T06:48:57;8.10;99.90
7016;DHT22;3548;48.402;9.990;2023-03-14T06:51:22;8.10;99.90
7016;DHT22;3548;48.402;9.990;2023-03-14T06:53:48;8.20;99.90
7016;DHT22;3548;48.402;9.990;2023-03-14T06:56:14;8.20;99.90
7016;DHT22;3548;48.402;9.990;2023-03-14T06:58:39;8.30;99.90
7016;DHT22;3548;48.402;9.990;2023-03-14T07:01:05;8.30;99.90
7016;DHT22;3548;48.402;9.990;2023-03-14T07:03:31;8.30;99.90
7016;DHT22;3548;48.402;9.990;2023-03-14T07:05:57;8.30;99.90
7016;DHT22;3548;48.402;9.990;2023-03-14T07:08:22;8.40;99.90
7016;DHT22;3548;48.402;9.990;2023-03-14T07:10:48;8.40;99.90
7016;DHT22;3548;48.402;9.990;2023-03-14T07:13:14;8.50;99.90
7016;DHT22;3548;48.402;9.990;2023-03-14T07:15:39;8.50;99.90
7016;DHT22;3548;48.402;9.990;2023-03-14T07:18:05;8.50;99.90
7016;DHT22;3548;48.402;9.990;2023-03-14T07:20:30;8.60;99.90
7016;DHT22;3548;48.402;9.990;2023-03-14T07:22:57;8.60;99.90
7016;DHT22;3548;48.402;9.990;2023-03-14T07:25:25;8.60;99.90
7016;DHT22;3548;48.402;9.990;2023-03-14T07:27:50;8.70;99.90
7016;DHT22;3548;48.402;9.990;2023-03-14T07:30:16;8.80;99.90
7016;DHT22;3548;48.402;9.990;2023-03-14T07:32:42;8.80;99.90
7016;DHT22;3548;48.402;9.990;2023-03-14T07:35:07;8.80;99.90
7016;DHT22;3548;48.402;9.990;2023-03-14T07:37:33;8.90;99.90
7016;DHT22;3548;48.402;9.990;2023-03-14T07:39:59;8.90;99.90
7016;DHT22;3548;48.402;9.990;2023-03-14T07:42:24;8.90;99.90
7016;DHT22;3548;48.402;9.990;2023-03-14T07:44:50;9.00;99.90
7016;DHT22;3548;48.402;9.990;2023-03-14T07:47:15;9.00;99.90
7016;DHT22;3548;48.402;9.990;2023-03-14T07:49:41;9.10;99.90
7016;DHT22;3548;48.402;9.990;2023-03-14T07:52:06;9.20;99.90
7016;DHT22;3548;48.402;9.990;2023-03-14T07:54:32;9.30;99.90
7016;DHT22;3548;48.402;9.990;2023-03-14T07:56:57;9.30;99.90
7016;DHT22;3548;48.402;9.990;2023-03-14T07:59:26;9.30;99.90
7016;DHT22;3548;48.402;9.990;2023-03-14T08:01:52;9.30;99.90
7016;DHT22;3548;48.402;9.990;2023-03-14T08:04:17;9.30;99.90
7016;DHT22;3548;48.402;9.990;2023-03-14T08:06:43;9.40;99.90
7016;DHT22;3548;48.402;9.990;2023-03-14T08:09:08;9.40;99.90
7016;DHT22;3548;48.402;9.990;2023-03-14T08:11:34;9.50;99.90
7016;DHT22;3548;48.402;9.990;2023-03-14T08:13:59;9.50;99.90
7016;DHT22;3548;48.402;9.990;2023-03-14T08:16:25;9.50;99.90
7016;DHT22;3548;48.402;9.990;2023-03-14T08:18:51;9.60;99.90
7016;DHT22;3548;48.402;9.990;2023-03-14T08:21:16;9.60;99.90
7016;DHT22;3548;48.402;9.990;2023-03-14T08:23:42;9.70;99.90
7016;DHT22;3548;48.402;9.990;2023-03-14T08:26:07;9.60;99.90
7016;DHT22;3548;48.402;9.990;2023-03-14T08:28:33;9.70;99.90
7016;DHT22;3548;48.402;9.990;2023-03-14T08:31:00;9.60;99.90
7016;DHT22;3548;48.402;9.990;2023-03-14T08:33:28;9.60;99.90
7016;DHT22;3548;48.402;9.990;2023-03-14T08:35:58;9.60;99.90
7016;DHT22;3548;48.402;9.990;2023-03-14T08:38:24;9.60;99.90
7016;DHT22;3548;48.402;9.990;2023-03-14T08:40:58;9.60;99.90
7016;DHT22;3548;48.402;9.990;2023-03-14T08:43:25;9.60;99.90
7016;DHT22;3548;48.402;9.990;2023-03-14T08:45:50;9.60;99.90
7016;DHT22;3548;48.402;9.990;2023-03-14T08:48:16;9.60;99.90
7016;DHT22;3548;48.402;9.990;2023-03-14T08:50:41;9.60;99.90
7016;DHT22;3548;48.402;9.990;2023-03-14T08:53:07;9.70;99.90
7016;DHT22;3548;48.402;9.990;2023-03-14T08:55:33;9.90;99.90
7016;DHT22;3548;48.402;9.990;2023-03-14T08:57:58;10.00;99.90
7016;DHT22;3548;48.402;9.990;2023-03-14T09:00:24;10.20;99.90
7016;DHT22;3548;48.402;9.990;2023-03-14T09:02:50;10.30;99.90
7016;DHT22;3548;48.402;9.990;2023-03-14T09:05:15;10.50;99.90
7016;DHT22;3548;48.402;9.990;2023-03-14T09:07:41;10.60;99.90
7016;DHT22;3548;48.402;9.990;2023-03-14T09:10:08;10.80;99.90
7016;DHT22;3548;48.402;9.990;2023-03-14T09:12:33;10.90;99.90
7016;DHT22;3548;48.402;9.990;2023-03-14T09:14:59;11.00;99.90
7016;DHT22;3548;48.402;9.990;2023-03-14T09:17:25;11.10;99.90
7016;DHT22;3548;48.402;9.990;2023-03-14T09:19:50;11.10;99.90
7016;DHT22;3548;48.402;9.990;2023-03-14T09:22:16;11.20;99.90
7016;DHT22;3548;48.402;9.990;2023-03-14T09:24:41;11.30;99.90
7016;DHT22;3548;48.402;9.990;2023-03-14T09:27:07;11.30;99.90
7016;DHT22;3548;48.402;9.990;2023-03-14T09:29:34;11.30;99.90
7016;DHT22;3548;48.402;9.990;2023-03-14T09:32:00;11.40;99.90
7016;DHT22;3548;48.402;9.990;2023-03-14T09:34:25;11.30;99.90
7016;DHT22;3548;48.402;9.990;2023-03-14T09:36:51;11.40;99.90
7016;DHT22;3548;48.402;9.990;2023-03-14T09:39:17;11.60;99.90
7016;DHT22;3548;48.402;9.990;2023-03-14T09:41:44;11.60;99.90
7016;DHT22;3548;48.402;9.990;2023-03-14T09:44:29;11.70;99.90
7016;DHT22;3548;48.402;9.990;2023-03-14T09:46:58;11.70;99.90
7016;DHT22;3548;48.402;9.990;2023-03-14T09:49:31;11.80;99.90
7016;DHT22;3548;48.402;9.990;2023-03-14T09:51:59;11.90;99.90
7016;DHT22;3548;48.402;9.990;2023-03-14T09:54:37;11.90;99.90
7016;DHT22;3548;48.402;9.990;2023-03-14T09:57:05;11.90;99.90
7016;DHT22;3548;48.402;9.990;2023-03-14T09:59:32;12.00;99.90
7016;DHT22;3548;48.402;9.990;2023-03-14T10:02:17;12.10;99.90
7016;DHT22;3548;48.402;9.990;2023-03-14T10:04:48;12.20;99.90
7016;DHT22;3548;48.402;9.990;2023-03-14T10:07:20;12.20;99.90
7016;DHT22;3548;48.402;9.990;2023-03-14T10:09:50;12.20;99.90
7016;DHT22;3548;48.402;9.990;2023-03-14T10:12:17;12.20;99.90
7016;DHT22;3548;48.402;9.990;2023-03-14T10:14:50;12.10;99.90
7016;DHT22;3548;48.402;9.990;2023-03-14T10:17:17;12.10;99.90
7016;DHT22;3548;48.402;9.990;2023-03-14T10:19:59;12.10;99.90
7016;DHT22;3548;48.402;9.990;2023-03-14T10:22:29;12.20;99.90
7016;DHT22;3548;48.402;9.990;2023-03-14T10:24:59;12.30;99.90
7016;DHT22;3548;48.402;9.990;2023-03-14T10:27:34;12.30;99.90
7016;DHT22;3548;48.402;9.990;2023-03-14T10:30:02;12.40;99.90
7016;DHT22;3548;48.402;9.990;2023-03-14T10:32:35;12.40;99.90
7016;DHT22;3548;48.402;9.990;2023-03-14T10:37:57;12.40;99.90
7016;DHT22;3548;48.402;9.990;2023-03-14T10:40:37;12.50;99.90
7016;DHT22;3548;48.402;9.990;2023-03-14T10:43:05;12.70;99.90
7016;DHT22;3548;48.402;9.990;2023-03-14T10:45:43;12.80;99.90
7016;DHT22;3548;48.402;9.990;2023-03-14T10:48:30;12.90;99.90
7016;DHT22;3548;48.402;9.990;2023-03-14T10:53:48;13.10;99.90
7016;DHT22;3548;48.402;9.990;2023-03-14T10:56:25;13.30;99.90
7016;DHT22;3548;48.402;9.990;2023-03-14T10:58:53;13.50;99.90
7016;DHT22;3548;48.402;9.990;2023-03-14T11:04:44;13.60;99.90
7016;DHT22;3548;48.402;9.990;2023-03-14T11:09:54;13.40;99.90
7016;DHT22;3548;48.402;9.990;2023-03-14T11:15:34;13.20;99.90
7016;DHT22;3548;48.402;9.990;2023-03-14T11:18:32;13.30;99.90
7016;DHT22;3548;48.402;9.990;2023-03-14T11:21:13;13.40;99.90
7016;DHT22;3548;48.402;9.990;2023-03-14T11:23:58;13.40;99.90
7016;DHT22;3548;48.402;9.990;2023-03-14T11:31:39;13.20;99.90
7016;DHT22;3548;48.402;9.990;2023-03-14T11:34:29;13.10;99.90
7016;DHT22;3548;48.402;9.990;2023-03-14T11:37:07;13.00;99.90
7016;DHT22;3548;48.402;9.990;2023-03-14T11:39:41;13.00;99.90
7016;DHT22;3548;48.402;9.990;2023-03-14T11:42:12;13.00;99.90
7016;DHT22;3548;48.402;9.990;2023-03-14T11:44:39;13.00;99.90
7016;DHT22;3548;48.402;9.990;2023-03-14T11:47:29;13.00;99.90
7016;DHT22;3548;48.402;9.990;2023-03-14T11:55:26;12.80;99.90
7016;DHT22;3548;48.402;9.990;2023-03-14T11:57:56;12.70;99.90
7016;DHT22;3548;48.402;9.990;2023-03-14T12:00:24;12.60;99.90
7016;DHT22;3548;48.402;9.990;2023-03-14T12:08:47;12.10;99.90
7016;DHT22;3548;48.402;9.990;2023-03-14T12:14:18;11.90;99.90
7016;DHT22;3548;48.402;9.990;2023-03-14T12:16:46;11.80;99.90
7016;DHT22;3548;48.402;9.990;2023-03-14T12:19:21;11.70;99.90
7016;DHT22;3548;48.402;9.990;2023-03-14T12:21:53;11.60;99.90
7016;DHT22;3548;48.402;9.990;2023-03-14T12:24:26;11.50;99.90
7016;DHT22;3548;48.402;9.990;2023-03-14T12:26:54;11.40;99.90
7016;DHT22;3548;48.402;9.990;2023-03-14T12:29:21;11.30;99.90
7016;DHT22;3548;48.402;9.990;2023-03-14T12:32:06;11.10;99.90
7016;DHT22;3548;48.402;9.990;2023-03-14T12:34:43;10.90;99.90
7016;DHT22;3548;48.402;9.990;2023-03-14T12:37:25;10.80;99.90
7016;DHT22;3548;48.402;9.990;2023-03-14T12:42:58;10.70;99.90
7016;DHT22;3548;48.402;9.990;2023-03-14T12:47:52;10.60;99.90
7016;DHT22;3548;48.402;9.990;2023-03-14T12:50:24;10.50;99.90
7016;DHT22;3548;48.402;9.990;2023-03-14T12:55:36;10.40;99.90
7016;DHT22;3548;48.402;9.990;2023-03-14T12:58:19;10.30;99.90
7016;DHT22;3548;48.402;9.990;2023-03-14T13:01:00;10.20;99.90
7016;DHT22;3548;48.402;9.990;2023-03-14T13:03:37;10.20;99.90
7016;DHT22;3548;48.402;9.990;2023-03-14T13:06:08;10.20;99.90
7016;DHT22;3548;48.402;9.990;2023-03-14T13:11:06;10.20;99.90
7016;DHT22;3548;48.402;9.990;2023-03-14T13:13:35;10.20;99.90
7016;DHT22;3548;48.402;9.990;2023-03-14T13:16:01;10.10;99.90
7016;DHT22;3548;48.402;9.990;2023-03-14T13:18:40;10.00;99.90
7016;DHT22;3548;48.402;9.990;2023-03-14T13:21:15;9.80;99.90
7016;DHT22;3548;48.402;9.990;2023-03-14T13:23:58;9.70;99.90
7016;DHT22;3548;48.402;9.990;2023-03-14T13:26:32;9.60;99.90
7016;DHT22;3548;48.402;9.990;2023-03-14T13:28:59;9.50;99.90
7016;DHT22;3548;48.402;9.990;2023-03-14T13:31:26;9.40;99.90
7016;DHT22;3548;48.402;9.990;2023-03-14T13:33:59;9.30;99.90
7016;DHT22;3548;48.402;9.990;2023-03-14T13:36:26;9.20;99.90
7016;DHT22;3548;48.402;9.990;2023-03-14T13:38:57;9.10;99.90
7016;DHT22;3548;48.402;9.990;2023-03-14T13:41:23;9.10;99.90
7016;DHT22;3548;48.402;9.990;2023-03-14T13:43:49;9.00;99.90
7016;DHT22;3548;48.402;9.990;2023-03-14T13:46:20;9.00;99.90
7016;DHT22;3548;48.402;9.990;2023-03-14T13:49:09;9.10;99.90
7016;DHT22;3548;48.402;9.990;2023-03-14T13:51:34;9.10;99.90
7016;DHT22;3548;48.402;9.990;2023-03-14T13:54:00;9.20;99.90
7016;DHT22;3548;48.402;9.990;2023-03-14T13:56:31;9.40;99.90
7016;DHT22;3548;48.402;9.990;2023-03-14T13:58:58;9.30;99.90
7016;DHT22;3548;48.402;9.990;2023-03-14T14:03:53;9.30;99.90
7016;DHT22;3548;48.402;9.990;2023-03-14T14:06:47;9.30;99.90
7016;DHT22;3548;48.402;9.990;2023-03-14T14:09:15;9.30;99.90
7016;DHT22;3548;48.402;9.990;2023-03-14T14:11:50;9.30;99.90
7016;DHT22;3548;48.402;9.990;2023-03-14T14:14:30;9.30;99.90
7016;DHT22;3548;48.402;9.990;2023-03-14T14:16:58;9.30;99.90
7016;DHT22;3548;48.402;9.990;2023-03-14T14:19:27;9.40;99.90
7016;DHT22;3548;48.402;9.990;2023-03-14T14:21:53;9.40;99.90
7016;DHT22;3548;48.402;9.990;2023-03-14T14:24:21;9.30;99.90
7016;DHT22;3548;48.402;9.990;2023-03-14T14:26:53;9.30;99.90
7016;DHT22;3548;48.402;9.990;2023-03-14T14:29:30;9.30;99.90
7016;DHT22;3548;48.402;9.990;2023-03-14T14:34:56;9.10;99.90
7016;DHT22;3548;48.402;9.990;2023-03-14T14:37:27;9.10;99.90
7016;DHT22;3548;48.402;9.990;2023-03-14T14:39:59;8.90;99.90
7016;DHT22;3548;48.402;9.990;2023-03-14T14:42:28;8.90;99.90
7016;DHT22;3548;48.402;9.990;2023-03-14T14:44:56;8.80;99.70
7016;DHT22;3548;48.402;9.990;2023-03-14T14:47:24;8.60;99.80
7016;DHT22;3548;48.402;9.990;2023-03-14T14:49:51;8.60;99.00
7016;DHT22;3548;48.402;9.990;2023-03-14T14:52:41;8.50;99.00
7016;DHT22;3548;48.402;9.990;2023-03-14T14:55:20;8.40;99.00
7016;DHT22;3548;48.402;9.990;2023-03-14T14:57:54;8.30;99.30
7016;DHT22;3548;48.402;9.990;2023-03-14T15:00:21;8.20;99.60
7016;DHT22;3548;48.402;9.990;2023-03-14T15:02:49;8.20;99.60
7016;DHT22;3548;48.402;9.990;2023-03-14T15:05:19;8.20;99.80
7016;DHT22;3548;48.402;9.990;2023-03-14T15:07:46;8.30;99.70
7016;DHT22;3548;48.402;9.990;2023-03-14T15:10:14;8.30;99.90
7016;DHT22;3548;48.402;9.990;2023-03-14T15:12:40;8.40;99.90
7016;DHT22;3548;48.402;9.990;2023-03-14T15:15:06;8.50;99.20
7016;DHT22;3548;48.402;9.990;2023-03-14T15:17:32;8.50;99.80
7016;DHT22;3548;48.402;9.990;2023-03-14T15:19:58;8.50;99.40
7016;DHT22;3548;48.402;9.990;2023-03-14T15:22:24;8.60;99.70
7016;DHT22;3548;48.402;9.990;2023-03-14T15:24:50;8.60;99.50
7016;DHT22;3548;48.402;9.990;2023-03-14T15:27:17;8.60;99.40
7016;DHT22;3548;48.402;9.990;2023-03-14T15:29:43;8.50;99.20
7016;DHT22;3548;48.402;9.990;2023-03-14T15:32:14;8.50;99.50
7016;DHT22;3548;48.402;9.990;2023-03-14T15:34:40;8.60;99.40
7016;DHT22;3548;48.402;9.990;2023-03-14T15:37:13;8.60;99.20
7016;DHT22;3548;48.402;9.990;2023-03-14T15:39:41;8.60;98.60
7016;DHT22;3548;48.402;9.990;2023-03-14T15:42:07;8.50;98.40
7016;DHT22;3548;48.402;9.990;2023-03-14T15:44:33;8.50;98.90
7016;DHT22;3548;48.402;9.990;2023-03-14T15:46:58;8.40;98.70
7016;DHT22;3548;48.402;9.990;2023-03-14T15:49:24;8.30;98.70
7016;DHT22;3548;48.402;9.990;2023-03-14T15:51:50;8.20;98.20
7016;DHT22;3548;48.402;9.990;2023-03-14T15:54:15;8.20;97.70
7016;DHT22;3548;48.402;9.990;2023-03-14T15:56:41;8.10;98.20
7016;DHT22;3548;48.402;9.990;2023-03-14T15:59:07;8.10;97.70
7016;DHT22;3548;48.402;9.990;2023-03-14T16:01:32;8.10;97.60
7016;DHT22;3548;48.402;9.990;2023-03-14T16:03:58;8.00;98.00
7016;DHT22;3548;48.402;9.990;2023-03-14T16:06:23;8.00;97.90
7016;DHT22;3548;48.402;9.990;2023-03-14T16:08:49;8.00;98.00
7016;DHT22;3548;48.402;9.990;2023-03-14T16:11:15;8.10;97.90
7016;DHT22;3548;48.402;9.990;2023-03-14T16:13:43;8.10;97.50
7016;DHT22;3548;48.402;9.990;2023-03-14T16:16:09;8.20;97.40
7016;DHT22;3548;48.402;9.990;2023-03-14T16:18:38;8.30;97.00
7016;DHT22;3548;48.402;9.990;2023-03-14T16:21:11;8.30;96.80
7016;DHT22;3548;48.402;9.990;2023-03-14T16:23:38;8.30;96.30
7016;DHT22;3548;48.402;9.990;2023-03-14T16:26:09;8.40;96.30
7016;DHT22;3548;48.402;9.990;2023-03-14T16:28:35;8.40;96.20
7016;DHT22;3548;48.402;9.990;2023-03-14T16:31:06;8.40;96.00
7016;DHT22;3548;48.402;9.990;2023-03-14T16:33:33;8.40;95.80
7016;DHT22;3548;48.402;9.990;2023-03-14T16:36:01;8.30;95.60
7016;DHT22;3548;48.402;9.990;2023-03-14T16:38:30;8.30;95.30
7016;DHT22;3548;48.402;9.990;2023-03-14T16:41:04;8.20;95.40
7016;DHT22;3548;48.402;9.990;2023-03-14T16:43:30;8.20;95.20
7016;DHT22;3548;48.402;9.990;2023-03-14T16:46:00;8.10;95.00
7016;DHT22;3548;48.402;9.990;2023-03-14T16:48:26;7.90;95.10
7016;DHT22;3548;48.402;9.990;2023-03-14T16:50:52;7.90;95.30
7016;DHT22;3548;48.402;9.990;2023-03-14T16:53:18;7.80;95.20
7016;DHT22;3548;48.402;9.990;2023-03-14T16:55:44;7.80;95.40
7016;DHT22;3548;48.402;9.990;2023-03-14T16:58:10;7.80;95.60
7016;DHT22;3548;48.402;9.990;2023-03-14T17:00:36;7.80;95.70
7016;DHT22;3548;48.402;9.990;2023-03-14T17:03:03;7.70;95.80
7016;DHT22;3548;48.402;9.990;2023-03-14T17:05:28;7.70;95.70
7016;DHT22;3548;48.402;9.990;2023-03-14T17:07:54;7.60;95.90
7016;DHT22;3548;48.402;9.990;2023-03-14T17:10:20;7.60;95.90
7016;DHT22;3548;48.402;9.990;2023-03-14T17:12:45;7.60;95.70
7016;DHT22;3548;48.402;9.990;2023-03-14T17:15:11;7.50;95.70
7016;DHT22;3548;48.402;9.990;2023-03-14T17:17:38;7.50;95.30
7016;DHT22;3548;48.402;9.990;2023-03-14T17:20:05;7.50;95.60
7016;DHT22;3548;48.402;9.990;2023-03-14T17:22:32;7.50;95.60